Date,TemperatureHighF,TemperatureAvgF,TemperatureLowF,DewpointHighF,DewpointAvgF,DewpointLowF,HumidityHigh,HumidityAvg,HumidityLow,PressureMaxIn,PressureMinIn,WindSpeedMaxMPH,WindSpeedAvgMPH,GustSpeedMaxMPH,PrecipitationSumIn
2013-1-1,34.1,26.8,18.2,20.0,15.2,12.0,81,63,43,30.42,30.16,18,6,23,0.00
2013-1-2,37.3,23.3,10.6,13.0,9.8,5.0,80,59,32,30.50,30.35,9,4,20,0.00
2013-1-3,35.9,25.4,18.8,15.0,9.6,5.0,67,52,40,30.56,30.43,22,9,28,0.00
2013-1-4,35.3,22.7,8.8,8.0,3.7,-1.0,67,46,28,30.58,30.40,15,6,19,0.00
2013-1-5,40.7,27.7,13.3,10.0,6.7,1.0,64,43,26,30.60,30.46,12,4,15,0.00
2013-1-6,42.2,28.3,14.8,10.0,7.4,4.0,64,43,26,30.58,30.29,16,5,18,0.00
2013-1-7,50.6,36.4,27.5,18.0,13.5,10.0,60,40,25,30.29,30.02,22,6,23,0.00
2013-1-8,47.4,33.7,18.6,19.0,14.6,10.0,73,48,25,30.35,30.04,22,10,29,0.00
2013-1-9,52.3,37.3,21.8,17.0,14.3,11.0,66,42,23,30.55,30.22,15,6,23,0.00
2013-1-10,47.2,34.5,21.5,16.0,13.5,10.0,66,44,27,30.21,29.79,18,6,22,0.00
2013-1-11,40.4,32.3,17.6,24.0,6.3,-10.0,64,36,17,30.00,29.65,26,9,32,0.00
2013-1-12,30.7,20.5,10.0,-1.0,-4.3,-11.0,54,35,19,30.25,30.00,15,5,20,0.00
2013-1-13,30.7,18.5,4.2,5.0,-2.2,-8.0,59,42,27,30.37,30.21,14,4,17,0.00
2013-1-14,26.5,21.5,14.1,22.0,11.8,0.0,87,67,42,30.32,30.14,14,5,18,0.03
2013-1-15,24.3,16.1,6.0,5.0,1.4,-4.0,68,53,38,30.67,30.31,17,5,22,0.00
2013-1-16,38.1,22.7,6.1,15.0,7.7,-1.0,76,54,38,30.76,30.58,13,3,17,0.00
2013-1-17,50.7,30.2,14.6,20.0,14.2,8.0,76,54,27,30.75,30.55,10,4,15,0.00
2013-1-18,51.9,34.5,20.2,20.0,17.5,13.0,78,53,28,30.56,30.34,12,4,14,0.00
2013-1-19,51.8,35.9,19.4,21.0,18.3,13.0,80,52,25,30.49,30.35,11,4,13,0.00
2013-1-20,54.4,33.5,18.1,18.0,13.9,4.0,77,50,15,30.44,30.26,10,4,13,0.00
2013-1-21,52.6,36.3,19.5,19.0,13.6,8.0,64,42,20,30.43,30.26,11,4,14,0.00
2013-1-22,59.9,39.1,20.1,19.0,15.1,8.0,73,43,13,30.42,30.27,10,3,12,0.00
2013-1-23,58.5,38.6,20.5,15.0,11.4,8.0,66,37,15,30.48,30.32,12,4,17,0.00
2013-1-24,61.6,43.6,24.3,34.0,18.5,9.0,57,39,18,30.40,30.21,20,5,25,0.00
2013-1-25,57.2,47.7,39.2,39.0,33.7,27.0,72,59,48,30.27,30.09,11,3,15,0.00
2013-1-26,50.3,45.5,40.9,48.0,39.5,34.0,90,80,63,30.11,29.84,14,5,28,0.22
2013-1-27,57.7,48.7,41.7,42.0,39.2,37.0,85,71,48,29.95,29.82,18,7,25,0.02
2013-1-28,54.7,44.8,38.5,39.0,34.5,24.0,85,69,36,29.85,29.64,23,9,36,0.00
2013-1-29,38.1,31.9,28.7,26.0,16.7,7.0,85,55,33,30.07,29.68,30,13,43,0.00
2013-1-30,40.9,32.6,22.9,21.0,15.7,9.0,69,51,35,30.36,30.07,22,9,31,0.00
2013-1-31,51.5,39.5,25.1,25.0,22.1,18.0,78,52,30,30.40,30.26,16,6,20,0.00
2013-2-1,55.3,39.5,23.6,24.0,20.3,15.0,79,51,21,30.34,30.20,16,4,23,0.00
2013-2-2,56.9,41.2,25.3,23.0,20.5,16.0,77,48,20,30.45,30.31,6,3,10,0.00
2013-2-3,52.8,41.4,28.0,30.0,22.1,17.0,71,49,25,30.34,30.01,15,5,21,0.00
2013-2-4,55.8,44.6,36.1,30.0,25.2,19.0,72,49,27,30.11,29.97,16,5,20,0.00
2013-2-5,61.0,43.4,30.2,24.0,19.7,14.0,71,43,17,30.12,29.96,9,3,14,0.00
2013-2-6,59.8,43.7,25.9,28.0,21.4,16.0,72,44,27,30.02,29.84,14,5,21,0.00
2013-2-7,57.3,44.1,36.8,26.0,18.3,11.0,59,39,18,30.11,29.99,7,3,18,0.00
2013-2-8,57.7,45.9,37.1,24.0,21.1,19.0,50,39,25,30.11,29.71,24,10,30,0.00
2013-2-9,49.3,36.6,27.0,24.0,16.6,3.0,68,47,20,29.87,29.58,35,11,56,0.00
2013-2-10,42.4,33.7,24.1,25.0,14.4,-99.9,76,49,27,30.04,29.87,18,-4,25,0.00
2013-2-11,46.4,32.8,19.9,25.0,17.7,4.0,86,59,18,30.12,29.96,21,6,24,0.00
2013-2-12,41.0,31.6,23.5,24.0,13.8,6.0,76,51,24,30.29,30.05,20,8,28,0.00
2013-2-13,47.2,33.0,21.2,18.0,14.1,10.0,62,47,28,30.31,30.13,20,5,28,0.00
2013-2-14,49.8,39.2,25.1,21.0,18.4,15.0,68,45,27,30.25,30.10,23,8,31,0.00
2013-2-15,51.9,39.2,23.1,23.0,12.8,1.0,76,40,13,30.42,30.25,23,8,33,0.00
2013-2-16,39.2,31.0,23.6,14.0,10.5,8.0,54,43,34,30.48,30.41,12,3,15,0.00
2013-2-17,55.0,47.4,36.9,11.0,7.4,5.0,30,20,13,30.05,29.86,18,8,26,0.00
2013-2-18,50.5,44.6,35.0,2.0,-13.0,-21.0,19,9,5,30.08,29.99,18,8,22,0.00
2013-2-19,60.1,42.4,22.6,35.0,6.7,-10.0,65,27,10,30.11,29.73,26,10,39,0.00
2013-2-20,50.9,42.8,35.0,36.0,30.1,16.0,79,63,25,29.73,29.42,23,10,39,0.00
2013-2-21,45.4,37.4,31.3,29.0,24.6,18.0,88,62,34,29.92,29.51,18,7,23,0.00
2013-2-22,42.7,35.4,28.6,27.0,20.9,12.0,72,57,29,30.10,29.92,25,6,34,0.00
2013-2-23,49.0,35.9,20.3,18.0,11.9,9.0,64,40,21,30.17,29.77,23,8,26,0.00
2013-2-24,42.5,34.7,28.6,27.0,15.8,4.0,90,49,25,29.93,29.67,30,12,38,0.00
2013-2-25,48.5,36.6,26.2,27.0,11.3,4.0,89,40,16,30.17,29.94,20,9,27,0.00
2013-2-26,45.0,34.9,24.8,14.0,5.5,-4.0,54,31,14,30.16,29.89,33,10,38,0.00
2013-2-27,45.7,34.4,23.6,9.0,4.5,-4.0,48,31,15,30.38,30.17,14,4,20,0.00
2013-2-28,52.1,37.1,22.5,9.0,4.5,-1.0,45,28,12,30.45,30.29,16,4,25,0.00
2013-3-1,59.0,45.6,31.8,21.0,14.5,6.0,41,29,19,30.43,30.24,18,7,25,0.00
2013-3-2,66.1,49.1,28.3,24.0,19.8,15.0,59,34,17,30.42,30.13,18,4,21,0.00
2013-3-3,68.3,51.4,31.8,24.0,15.5,-2.0,55,28,6,30.13,29.78,20,7,29,0.00
2013-3-4,61.9,55.0,40.2,23.0,19.9,16.0,41,26,20,29.99,29.64,23,8,35,0.00
2013-3-5,60.5,45.7,30.4,23.0,16.8,7.0,69,36,12,30.27,30.00,14,5,19,0.00
2013-3-6,66.7,52.0,40.5,26.0,20.5,11.0,43,30,20,30.16,29.84,22,7,27,0.00
2013-3-7,69.8,53.5,31.7,22.0,17.5,14.0,50,28,13,30.01,29.79,14,5,27,0.00
2013-3-8,61.2,48.1,37.9,42.0,25.2,11.0,85,46,20,29.86,29.61,25,7,40,0.08
2013-3-9,45.1,38.7,31.9,36.0,26.1,18.0,87,62,34,30.00,29.72,22,7,25,0.03
2013-3-10,51.8,38.6,25.7,29.0,22.9,16.0,87,59,27,30.21,30.00,15,4,22,0.00
2013-3-11,61.4,46.6,31.6,22.0,17.7,11.0,59,36,14,30.23,29.99,19,7,23,0.00
2013-3-12,65.9,53.0,35.7,25.0,21.9,20.0,54,32,17,30.17,30.03,13,5,16,0.00
2013-3-13,70.4,52.9,33.1,27.0,21.4,-99.9,64,34,15,30.29,30.10,16,-5,27,0.00
2013-3-14,75.9,58.0,37.7,25.0,18.0,9.0,48,24,10,30.26,30.05,12,4,17,0.00
2013-3-15,78.5,58.2,39.2,21.0,15.2,9.0,40,21,7,30.09,29.77,16,4,20,0.00
2013-3-16,71.8,58.9,43.5,34.0,21.1,13.0,46,24,15,29.79,29.56,26,8,33,0.00
2013-3-17,68.3,54.0,39.4,36.0,22.9,-11.0,71,39,4,29.73,29.54,24,7,34,0.00
2013-3-18,65.2,52.0,36.2,10.0,5.9,1.0,31,17,8,29.91,29.73,25,8,36,0.00
2013-3-19,61.9,51.7,40.3,17.0,9.8,0.0,30,19,13,30.12,29.90,14,5,27,0.00
2013-3-20,63.0,50.3,35.7,28.0,18.6,14.0,45,30,18,30.21,29.79,23,7,23,0.00
2013-3-21,70.5,59.3,49.4,32.0,18.8,-1.0,47,25,6,29.78,29.45,25,10,36,0.00
2013-3-22,65.7,52.6,34.2,28.0,11.9,4.0,36,21,9,29.71,29.50,24,8,33,0.00
2013-3-23,51.6,40.1,31.2,27.0,1.9,-15.0,49,23,9,30.11,29.59,27,10,44,0.00
2013-3-24,51.6,38.0,23.4,0.0,-6.1,-12.0,28,16,9,30.23,29.96,30,7,33,0.00
2013-3-25,55.7,40.1,25.3,11.0,7.2,-4.0,48,28,15,30.26,30.09,19,8,26,0.00
2013-3-26,65.7,48.9,31.3,13.0,9.9,6.0,37,22,12,30.22,29.89,23,11,31,0.00
2013-3-27,71.1,58.1,42.0,15.0,10.7,3.0,30,17,8,30.00,29.80,18,7,31,0.00
2013-3-28,71.7,60.7,44.0,23.0,13.8,6.0,25,16,10,29.98,29.82,25,5,35,0.00
2013-3-29,72.8,59.7,43.5,22.0,17.3,13.0,32,20,12,30.02,29.86,14,4,18,0.00
2013-3-30,72.6,59.4,40.3,26.0,20.6,16.0,39,24,12,30.03,29.81,17,6,38,0.00
2013-3-31,72.9,61.0,46.2,31.0,27.0,24.0,42,28,17,29.94,29.75,15,4,19,0.00
2013-4-1,74.0,62.2,43.3,27.0,17.0,1.0,43,21,6,29.88,29.63,21,6,34,0.00
2013-4-2,67.6,56.5,44.0,29.0,16.7,1.0,55,23,7,29.85,29.62,25,8,36,0.00
2013-4-3,66.3,52.4,40.1,31.0,26.8,20.0,66,41,17,30.04,29.84,17,6,23,0.00
2013-4-4,72.5,57.0,38.8,29.0,20.6,9.0,60,30,10,30.14,29.91,23,5,23,0.00
2013-4-5,76.9,62.0,45.3,18.0,13.7,4.0,28,17,6,29.96,29.61,28,8,33,0.00
2013-4-6,75.3,64.7,50.0,27.0,21.6,16.0,34,20,12,29.79,29.58,17,6,25,0.00
2013-4-7,73.9,64.5,48.7,27.0,19.5,14.0,35,19,10,29.69,29.51,19,6,30,0.00
2013-4-8,77.0,64.4,51.2,30.0,21.3,10.0,37,21,8,29.55,29.11,47,16,51,0.00
2013-4-9,55.5,47.1,39.7,36.0,31.6,26.0,86,57,37,29.77,29.18,26,11,39,0.03
2013-4-10,47.2,41.6,37.2,37.0,26.4,20.0,88,57,37,29.96,29.78,21,7,29,0.02
2013-4-11,62.3,47.4,30.2,32.0,23.8,16.0,57,41,27,29.99,29.78,19,7,29,0.00
2013-4-12,70.4,57.5,47.1,33.0,27.9,19.0,55,35,16,29.84,29.66,11,3,15,0.00
2013-4-13,74.0,59.0,40.8,28.0,21.1,13.0,52,26,11,29.78,29.48,19,8,33,0.00
2013-4-14,76.2,65.1,53.8,26.0,22.5,18.0,30,21,11,29.51,29.34,25,12,51,0.00
2013-4-15,79.5,64.6,48.1,27.0,19.5,9.0,33,20,7,29.54,29.32,50,13,50,0.00
2013-4-16,79.9,66.7,54.6,25.0,15.1,0.0,27,15,5,29.57,29.35,38,16,49,0.00
2013-4-17,62.7,52.5,41.3,29.0,19.7,3.0,42,29,11,29.85,29.43,28,10,38,0.01
2013-4-18,49.0,41.0,30.3,17.0,6.4,0.0,45,26,14,30.23,29.86,25,10,31,0.00
2013-4-19,63.3,47.6,31.7,8.0,4.7,2.0,31,19,9,30.34,29.94,19,6,26,0.00
2013-4-20,68.5,55.8,41.4,20.0,11.0,3.0,30,17,9,29.95,29.72,31,8,31,0.00
2013-4-21,72.8,57.2,38.6,24.0,15.5,-2.0,42,23,5,30.03,29.84,20,5,28,0.00
2013-4-22,81.8,64.1,42.9,19.0,12.7,6.0,29,15,6,29.88,29.55,25,9,35,0.00
2013-4-23,66.6,56.6,39.8,30.0,16.6,-18.0,55,26,4,29.96,29.60,30,10,43,0.00
2013-4-24,69.3,49.9,30.1,20.0,17.1,14.0,60,33,12,30.15,29.96,20,7,24,0.00
2013-4-25,74.4,60.3,49.6,30.0,25.3,14.0,38,27,10,30.01,29.64,39,11,50,0.00
2013-4-26,74.1,61.3,45.1,32.0,20.2,-7.0,50,27,4,30.01,29.85,17,6,22,0.00
2013-4-27,76.7,62.6,44.6,30.0,12.0,-14.0,43,20,3,30.08,29.86,13,5,19,0.00
2013-4-28,80.8,64.7,42.1,13.0,5.1,-4.0,23,11,4,29.93,29.66,14,5,23,0.00
2013-4-29,84.8,67.6,46.4,16.0,11.3,3.0,23,12,6,29.75,29.48,17,5,22,0.00
2013-4-30,85.1,70.7,48.8,21.0,13.9,5.0,26,13,5,29.61,29.42,23,7,35,0.00
2013-5-1,82.3,69.1,51.9,29.0,14.4,-4.0,41,14,6,29.91,29.53,25,9,35,0.00
2013-5-2,62.1,50.5,40.0,29.0,17.4,10.0,54,30,14,30.32,29.93,22,9,26,0.00
2013-5-3,67.3,51.7,35.7,17.0,13.4,10.0,39,24,11,30.34,29.91,20,8,24,0.00
2013-5-4,77.1,61.9,40.9,14.0,10.2,4.0,27,14,6,29.93,29.70,11,5,22,0.00
2013-5-5,71.6,62.8,52.0,33.0,20.9,9.0,30,20,12,29.93,29.78,22,6,28,0.00
2013-5-6,69.3,62.1,56.6,38.0,27.1,17.0,41,27,18,29.82,29.74,24,8,30,0.00
2013-5-7,74.9,62.9,48.5,35.0,30.6,24.0,51,31,15,29.88,29.66,25,5,52,0.00
2013-5-8,69.8,61.4,51.4,37.0,26.9,17.0,55,30,14,29.83,29.72,17,5,25,0.00
2013-5-9,71.1,61.0,48.7,32.0,25.5,20.0,38,27,16,29.93,29.77,16,6,21,0.00
2013-5-10,67.4,60.0,51.9,45.0,36.4,31.0,70,43,30,30.13,29.91,18,7,31,0.00
2013-5-11,72.6,59.2,46.3,46.0,37.4,27.0,86,50,19,30.19,30.10,16,6,28,0.00
2013-5-12,78.9,63.2,45.3,37.0,32.3,28.0,65,35,16,30.21,29.95,12,4,22,0.00
2013-5-13,84.1,68.2,50.3,34.0,29.8,25.0,48,26,13,30.09,29.85,16,5,24,0.00
2013-5-14,85.4,69.7,50.4,41.0,27.2,18.0,37,22,10,29.91,29.62,19,6,36,0.00
2013-5-15,85.1,72.1,63.4,42.0,37.6,29.0,43,30,13,29.74,29.54,15,5,25,0.00
2013-5-16,86.8,72.7,52.5,35.0,19.6,7.0,31,16,5,29.76,29.55,21,5,32,0.00
2013-5-17,86.9,73.7,53.7,27.0,18.1,9.0,23,13,7,29.74,29.53,18,6,33,0.00
2013-5-18,77.7,70.6,55.0,31.0,19.7,10.0,29,15,9,29.72,29.50,23,10,34,0.00
2013-5-19,74.5,64.8,56.6,35.0,29.9,17.0,45,29,12,29.72,29.61,21,9,35,0.00
2013-5-20,73.1,62.4,48.5,36.0,29.7,19.0,55,32,13,29.79,29.63,25,7,37,0.00
2013-5-21,78.7,64.6,48.5,34.0,28.3,19.0,53,30,11,29.88,29.65,19,5,27,0.00
2013-5-22,86.6,71.1,51.2,27.0,20.7,12.0,37,18,7,29.73,29.51,19,6,24,0.00
2013-5-23,91.1,75.4,54.9,28.0,16.2,3.0,24,12,6,29.72,29.50,27,8,35,0.00
2013-5-24,87.6,75.4,60.8,51.0,33.9,16.0,53,27,9,29.78,29.59,22,7,27,0.00
2013-5-25,91.3,75.3,54.5,38.0,21.6,2.0,38,16,4,29.81,29.55,17,6,27,0.00
2013-5-26,88.4,75.7,59.6,22.0,10.2,-12.0,19,9,2,29.76,29.54,18,6,33,0.00
2013-5-27,85.5,71.2,57.3,22.0,10.4,-4.0,17,10,4,29.72,29.54,21,6,29,0.00
2013-5-28,85.0,71.8,51.3,23.0,12.8,-1.0,24,12,4,29.60,29.34,19,6,24,0.00
2013-5-29,81.1,71.3,60.7,38.0,22.0,3.0,37,18,5,29.48,29.32,24,8,29,0.00
2013-5-30,86.7,72.5,56.8,27.0,20.2,14.0,24,15,8,29.65,29.48,27,7,29,0.00
2013-5-31,84.3,74.5,62.3,38.0,22.0,2.0,33,16,6,29.72,29.57,26,8,32,0.00
2013-6-1,87.2,75.6,58.8,29.0,7.6,-6.0,20,9,3,29.85,29.71,12,4,16,0.00
2013-6-2,85.0,73.4,59.0,48.0,35.1,27.0,35,25,18,29.84,29.56,14,4,38,0.02
2013-6-3,92.1,78.0,63.3,50.0,35.7,9.0,57,28,5,29.71,29.47,20,10,33,0.00
2013-6-4,92.1,78.5,59.7,30.0,17.8,6.0,20,11,4,29.69,29.50,14,6,28,0.00
2013-6-5,90.0,76.9,62.0,42.0,32.3,21.0,36,21,8,29.67,29.51,22,8,36,0.00
2013-6-6,88.9,73.7,59.6,46.0,39.6,26.0,52,32,11,29.76,29.58,20,7,35,0.00
2013-6-7,90.8,73.5,62.1,52.0,45.1,29.0,67,40,11,29.76,29.48,23,8,39,0.00
2013-6-8,95.3,79.0,58.7,46.0,36.4,22.0,60,28,7,29.65,29.44,22,8,30,0.00
2013-6-9,95.9,81.7,65.0,47.0,39.8,28.0,51,26,9,29.68,29.53,14,4,17,0.00
2013-6-10,99.4,85.2,66.2,50.0,37.3,24.0,51,23,7,29.69,29.48,21,8,29,0.00
2013-6-11,99.6,87.3,70.1,35.0,20.1,6.0,24,9,4,29.68,29.49,19,7,34,0.00
2013-6-12,99.7,83.1,62.1,26.0,18.9,15.0,21,10,5,29.76,29.59,14,4,28,0.00
2013-6-13,96.7,82.4,68.1,44.0,36.7,17.0,33,20,8,29.72,29.54,19,6,40,0.01
2013-6-14,90.1,79.2,69.7,55.0,48.1,43.0,47,34,22,29.68,29.51,23,7,35,0.01
2013-6-15,93.3,78.0,60.1,52.0,42.7,28.0,72,35,10,29.80,29.61,29,8,35,0.00
2013-6-16,91.4,79.9,65.5,45.0,40.6,33.0,43,26,14,29.80,29.64,24,7,37,0.00
2013-6-17,91.8,79.9,64.7,48.0,38.7,34.0,37,24,14,29.80,29.58,17,5,22,0.00
2013-6-18,90.8,78.8,65.4,52.0,46.8,34.0,60,36,15,29.78,29.53,24,6,35,0.00
2013-6-19,97.5,81.8,63.4,50.0,23.7,-20.0,50,19,1,29.64,29.40,26,8,33,0.00
2013-6-20,96.4,79.9,62.1,46.0,8.7,-99.9,45,15,1,29.68,29.47,18,6,26,0.00
2013-6-21,95.2,79.0,55.5,46.0,17.8,-10.0,33,13,2,29.75,29.50,16,6,26,0.00
2013-6-22,92.8,78.5,58.6,23.0,11.3,0.0,21,9,3,29.71,29.50,23,6,32,0.00
2013-6-23,93.0,78.5,58.8,21.0,13.9,6.0,18,9,5,29.69,29.46,18,6,34,0.00
2013-6-24,93.5,80.2,63.6,25.0,8.8,-9.0,14,7,2,29.67,29.49,22,7,33,0.00
2013-6-25,94.9,81.2,60.2,28.0,19.7,9.0,18,10,7,29.73,29.57,18,5,27,0.00
2013-6-26,99.4,84.7,66.1,32.0,26.3,21.0,24,13,7,29.77,29.59,15,5,19,0.00
2013-6-27,104.0,88.1,70.9,34.0,28.0,14.0,21,13,4,29.78,29.58,13,5,24,0.00
2013-6-28,95.3,85.9,77.6,51.0,43.3,32.0,38,23,13,29.78,29.65,26,10,33,0.00
2013-6-29,96.4,85.0,72.3,49.0,44.0,33.0,44,25,11,29.83,29.64,27,9,45,0.00
2013-6-30,95.5,80.5,68.7,52.0,46.9,38.0,48,33,14,29.80,29.57,22,6,35,0.00
2013-7-1,88.1,80.1,73.3,53.0,48.9,46.0,47,34,25,29.90,29.74,17,5,21,0.03
2013-7-2,84.1,72.7,62.8,59.0,49.9,43.0,63,46,26,29.96,29.68,17,6,26,0.04
2013-7-3,89.5,73.3,61.3,57.0,52.8,43.0,79,52,20,29.89,29.60,16,6,31,0.04
2013-7-4,92.4,78.2,62.6,57.0,50.6,40.0,77,43,17,29.72,29.55,18,5,24,0.00
2013-7-5,91.4,78.8,68.5,62.0,53.3,48.0,76,43,25,29.69,29.45,21,8,46,0.12
2013-7-6,92.8,75.3,66.7,61.0,56.7,47.0,76,57,21,29.74,29.54,21,6,32,0.05
2013-7-7,95.6,80.1,65.9,62.0,55.2,46.0,83,48,19,29.75,29.58,12,6,18,0.01
2013-7-8,94.5,79.9,71.4,62.0,54.6,48.0,71,43,20,29.82,29.64,18,7,27,0.00
2013-7-9,96.6,79.9,69.4,61.0,57.6,51.0,72,49,22,29.85,29.69,28,5,43,0.00
2013-7-10,95.1,81.9,70.3,63.0,54.7,48.0,67,42,21,29.82,29.62,21,5,30,0.13
2013-7-11,88.7,78.5,68.8,61.0,56.8,48.0,75,50,25,29.83,29.62,21,9,25,0.25
2013-7-12,89.9,76.5,67.3,63.0,58.5,53.0,79,56,30,29.76,29.63,24,5,39,0.28
2013-7-13,93.5,80.4,67.8,61.0,55.3,48.0,73,45,21,29.80,29.63,13,4,25,0.00
2013-7-14,96.2,79.8,68.9,63.0,55.4,46.0,80,47,19,29.77,29.52,24,5,36,0.14
2013-7-15,76.3,70.6,67.4,64.0,57.3,50.0,86,64,43,29.88,29.71,20,7,26,0.01
2013-7-16,83.5,72.0,63.5,55.0,48.6,43.0,64,45,25,29.97,29.83,15,5,22,0.00
2013-7-17,82.8,71.8,61.7,56.0,51.5,47.0,75,51,29,30.06,29.90,14,4,20,0.01
2013-7-18,85.6,74.4,63.0,55.0,53.8,52.0,74,51,33,29.99,29.77,18,7,23,0.00
2013-7-19,86.6,74.9,67.4,62.0,57.8,54.0,74,56,37,29.85,29.67,15,6,22,0.04
2013-7-20,88.0,75.3,65.8,61.0,58.0,53.0,81,58,32,29.79,29.60,21,8,30,0.00
2013-7-21,90.3,76.8,68.0,61.0,56.3,48.0,76,52,27,29.74,29.59,20,6,26,0.00
2013-7-22,95.2,81.7,68.5,56.0,51.8,43.0,62,39,17,29.74,29.56,16,5,22,0.00
2013-7-23,97.3,83.2,70.7,56.0,50.6,44.0,54,34,18,29.69,29.54,25,5,34,0.00
2013-7-24,90.0,76.8,66.9,61.0,53.3,46.0,75,46,28,29.85,29.63,22,7,38,0.46
2013-7-25,85.6,74.9,65.0,61.0,58.5,57.0,81,59,39,29.91,29.75,20,8,33,0.08
2013-7-26,89.2,72.4,61.1,62.0,59.3,53.0,90,67,35,30.04,29.79,38,8,45,0.95
2013-7-27,83.9,73.4,63.1,60.0,57.5,54.0,86,60,37,30.02,29.74,18,7,22,0.00
2013-7-28,87.2,76.3,67.5,62.0,58.9,51.0,80,57,29,29.75,29.58,15,7,27,0.00
2013-7-29,90.0,79.1,65.0,60.0,51.7,43.0,79,44,20,29.80,29.70,18,7,23,0.00
2013-7-30,94.6,81.6,67.1,52.0,46.9,37.0,56,32,14,29.93,29.77,12,4,20,0.00
2013-7-31,94.8,83.1,68.1,54.0,45.6,39.0,46,28,16,29.91,29.71,14,5,21,0.00
2013-8-1,87.4,76.0,69.0,63.0,57.0,54.0,79,53,34,29.87,29.74,18,6,26,0.00
2013-8-2,90.5,74.6,65.1,63.0,57.2,-99.9,86,62,26,29.86,29.68,21,4,29,0.41
2013-8-3,90.5,77.6,65.2,61.0,57.4,52.0,85,54,28,29.86,29.71,11,4,15,0.00
2013-8-4,92.6,78.9,65.3,62.0,58.2,53.0,85,52,26,29.87,29.66,18,8,29,0.21
2013-8-5,89.8,75.7,65.4,62.0,58.2,52.0,81,57,28,29.86,29.68,12,4,28,0.00
2013-8-6,87.8,76.3,69.6,62.0,54.8,50.0,69,49,28,29.77,29.65,22,6,29,0.01
2013-8-7,81.8,72.7,64.1,57.0,54.9,50.0,77,55,33,29.79,29.70,24,7,27,0.00
2013-8-8,84.8,73.4,64.0,58.0,52.0,44.0,76,51,24,29.82,29.71,18,7,26,0.00
2013-8-9,87.4,75.1,62.4,52.0,47.5,39.0,64,40,19,29.90,29.77,20,8,24,0.00
2013-8-10,83.2,71.8,62.8,56.0,51.9,44.0,79,51,30,30.03,29.84,23,8,39,0.13
2013-8-11,84.1,72.0,62.0,58.0,53.7,46.0,84,56,27,30.04,29.84,12,5,20,0.02
2013-8-12,83.8,73.2,67.2,59.0,56.6,53.0,71,57,36,29.94,29.79,18,6,27,0.00
2013-8-13,87.8,76.3,65.8,58.0,52.1,44.0,72,46,23,29.92,29.77,25,6,25,0.00
2013-8-14,87.7,75.0,66.8,59.0,53.7,44.0,73,50,22,29.89,29.74,26,5,37,0.02
2013-8-15,90.9,76.7,64.2,56.0,51.5,37.0,75,46,16,29.91,29.75,16,5,22,0.00
2013-8-16,94.7,80.0,63.4,53.0,46.3,36.0,63,34,13,29.89,29.72,14,5,18,0.00
2013-8-17,93.3,81.4,68.1,51.0,46.0,38.0,48,31,16,29.84,29.65,18,6,30,0.00
2013-8-18,93.3,82.0,69.9,51.0,48.4,44.0,51,32,18,29.82,29.65,15,5,25,0.00
2013-8-19,93.5,80.2,70.2,57.0,51.0,47.0,61,38,20,29.80,29.63,19,7,33,0.00
2013-8-20,91.2,76.5,62.6,58.0,55.3,50.0,82,51,25,29.81,29.66,14,5,19,0.00
2013-8-21,88.8,78.3,65.5,58.0,53.6,49.0,72,45,25,29.83,29.69,19,5,20,0.00
2013-8-22,91.1,80.4,67.4,56.0,49.1,42.0,56,35,22,29.85,29.66,15,4,20,0.01
2013-8-23,88.4,76.9,63.8,51.0,45.6,39.0,44,34,25,29.83,29.66,18,6,26,0.00
2013-8-24,83.0,73.3,63.7,61.0,56.0,49.0,82,57,37,29.89,29.74,24,5,32,0.27
2013-8-25,83.8,73.6,66.5,61.0,59.0,56.0,82,62,40,29.96,29.86,13,4,29,0.00
2013-8-26,88.9,75.5,64.0,63.0,57.0,53.0,78,55,30,29.97,29.78,19,5,28,0.29
2013-8-27,88.7,76.2,63.4,59.0,52.9,46.0,71,47,28,29.89,29.71,12,4,18,0.00
2013-8-28,87.9,76.3,62.7,56.0,51.5,48.0,62,43,28,29.86,29.74,21,7,25,0.00
2013-8-29,86.3,76.9,70.1,58.0,55.4,52.0,62,48,32,29.91,29.79,18,9,24,0.00
2013-8-30,92.7,79.3,67.1,62.0,54.7,48.0,72,46,23,29.90,29.70,14,5,18,0.00
2013-8-31,94.2,82.1,69.0,57.0,51.7,46.0,61,37,19,29.78,29.57,14,5,22,0.00
2013-9-1,93.2,80.2,70.2,60.0,51.1,45.0,68,38,19,29.82,29.61,19,6,34,0.01
2013-9-2,89.1,78.0,69.7,59.0,55.1,51.0,66,47,29,29.86,29.70,13,5,18,0.00
2013-9-3,92.1,78.0,65.1,60.0,55.4,49.0,80,49,26,29.88,29.71,17,5,22,0.00
2013-9-4,91.7,79.6,65.2,55.0,47.4,36.0,60,35,19,29.93,29.77,12,4,16,0.00
2013-9-5,91.0,77.5,62.5,44.0,38.5,-99.9,46,27,16,29.94,29.79,10,-7,17,0.00
2013-9-6,90.3,77.0,62.2,44.0,39.3,35.0,42,27,18,29.94,29.73,13,4,17,0.00
2013-9-7,90.1,77.0,64.1,53.0,47.6,39.0,54,36,25,29.87,29.69,13,4,23,0.00
2013-9-8,88.8,76.6,64.0,53.0,47.8,44.0,52,37,25,29.80,29.57,18,5,26,0.00
2013-9-9,84.7,75.0,63.6,56.0,51.6,46.0,67,46,28,29.70,29.54,23,6,30,0.00
2013-9-10,71.9,66.5,61.9,62.0,58.3,54.0,94,76,53,29.87,29.67,15,5,18,0.62
2013-9-11,83.5,70.4,62.7,63.0,59.3,51.0,93,71,33,29.93,29.80,10,4,18,0.00
2013-9-12,69.7,65.4,62.2,64.0,60.8,58.0,92,85,73,29.91,29.80,16,7,24,0.64
2013-9-13,71.2,64.2,59.6,61.0,59.6,56.0,96,86,61,29.92,29.79,18,6,23,0.71
2013-9-14,74.0,65.8,58.9,60.0,58.1,54.0,95,78,53,29.88,29.75,18,4,30,1.46
2013-9-15,79.6,66.4,57.6,58.0,55.4,51.0,92,70,38,29.94,29.83,12,4,23,0.06
2013-9-16,79.1,68.5,58.3,58.0,55.0,52.0,88,64,39,30.01,29.85,8,3,18,0.00
2013-9-17,81.0,70.0,59.9,59.0,55.9,48.0,88,64,32,29.92,29.71,17,6,19,0.00
2013-9-18,80.7,72.0,65.6,61.0,57.1,50.0,80,61,36,29.77,29.61,19,8,23,0.00
2013-9-19,83.9,71.4,60.3,59.0,51.2,37.0,88,54,19,29.78,29.67,11,4,21,0.23
2013-9-20,82.6,69.9,57.2,55.0,50.3,40.0,78,52,24,29.87,29.75,12,4,17,0.00
2013-9-21,80.0,68.9,59.4,57.0,53.6,47.0,84,61,32,29.88,29.68,18,8,22,0.00
2013-9-22,80.2,67.7,58.6,56.0,51.6,40.0,85,59,30,29.71,29.36,34,11,49,0.13
2013-9-23,71.3,60.8,48.1,43.0,37.9,33.0,72,45,25,29.96,29.60,18,6,25,0.00
2013-9-24,76.9,63.8,50.8,45.0,40.1,37.0,65,44,24,30.05,29.83,11,5,15,0.00
2013-9-25,83.2,66.2,50.2,46.0,42.4,39.0,77,46,23,29.83,29.52,18,6,25,0.00
2013-9-26,82.5,68.6,52.2,44.0,38.7,30.0,66,37,16,29.66,29.49,31,8,33,0.00
2013-9-27,69.3,60.0,50.4,50.0,41.1,31.0,65,50,37,29.94,29.57,22,8,34,0.00
2013-9-28,70.3,55.1,40.7,30.0,25.3,16.0,62,36,14,30.17,29.94,11,4,13,0.00
2013-9-29,77.1,59.8,42.9,32.0,26.4,18.0,57,32,11,30.16,29.92,11,4,20,0.00
2013-9-30,82.2,64.9,46.4,34.0,27.6,21.0,53,28,11,29.95,29.73,14,4,22,0.00
2013-10-1,83.8,65.9,48.5,34.0,27.1,16.0,46,26,8,29.86,29.73,10,3,21,0.00
2013-10-2,79.8,63.1,47.2,34.0,29.5,22.0,52,31,12,29.89,29.72,18,3,21,0.00
2013-10-3,78.0,62.2,46.2,37.0,31.7,23.0,57,35,13,29.81,29.58,22,5,34,0.00
2013-10-4,63.6,55.9,50.6,32.0,18.6,6.0,42,25,12,30.04,29.66,27,12,34,0.00
2013-10-5,61.4,51.2,39.4,24.0,19.3,12.0,53,30,16,30.23,30.05,17,6,24,0.00
2013-10-6,71.8,55.1,43.2,27.0,21.7,15.0,41,29,12,30.28,30.11,14,5,18,0.00
2013-10-7,74.7,56.4,39.5,26.0,23.1,20.0,52,30,13,30.22,29.98,15,5,20,0.00
2013-10-8,77.1,60.6,44.3,33.0,29.7,25.0,52,33,18,29.99,29.71,16,6,22,0.00
2013-10-9,75.3,61.9,46.8,38.0,32.7,27.0,55,36,18,29.80,29.66,21,7,25,0.00
2013-10-10,70.0,55.4,41.5,48.0,37.0,30.0,79,52,28,29.88,29.52,32,8,57,0.13
2013-10-11,61.3,48.7,35.0,35.0,31.9,29.0,83,55,32,30.04,29.88,14,5,23,0.00
2013-10-12,69.2,55.1,41.5,37.0,33.9,32.0,70,48,26,30.12,29.95,12,6,19,0.00
2013-10-13,77.8,64.1,51.2,46.0,39.3,36.0,59,42,22,30.02,29.74,21,9,32,0.00
2013-10-14,67.4,59.3,50.1,45.0,29.1,17.0,67,34,17,29.92,29.77,16,7,24,0.00
2013-10-15,65.7,53.7,42.0,36.0,27.3,22.0,57,37,25,30.00,29.82,29,8,35,0.03
2013-10-16,60.2,51.0,43.9,36.0,27.6,14.0,69,45,17,30.07,29.92,20,8,27,0.00
2013-10-17,65.8,48.7,33.6,23.0,18.4,13.0,56,33,14,30.15,29.91,12,3,19,0.00
2013-10-18,62.1,50.8,34.4,29.0,17.6,13.0,59,29,15,30.11,29.93,23,6,31,0.00
2013-10-19,66.7,47.7,31.5,30.0,23.6,15.0,81,46,15,30.20,30.01,14,5,20,0.00
2013-10-20,69.9,54.1,33.5,24.0,17.0,12.0,52,26,11,30.04,29.80,17,4,22,0.00
2013-10-21,65.4,52.0,39.4,32.0,26.6,18.0,62,39,23,30.12,29.89,11,2,26,0.00
2013-10-22,69.3,50.8,35.4,30.0,24.5,21.0,66,40,17,30.26,30.09,11,3,13,0.00
2013-10-23,70.2,52.3,35.6,30.0,25.4,21.0,57,37,21,30.19,30.01,15,5,18,0.00
2013-10-24,74.0,58.5,40.8,50.0,31.3,25.0,87,39,20,30.15,29.97,18,5,33,0.06
2013-10-25,64.2,54.0,48.2,50.0,46.7,43.0,89,78,49,30.15,29.97,20,7,36,0.11
2013-10-26,66.5,53.2,41.1,45.0,40.5,32.0,93,67,28,30.25,30.10,12,3,16,0.01
2013-10-27,68.0,53.3,40.1,42.0,38.1,34.0,87,61,29,30.16,29.83,15,4,19,0.00
2013-10-28,69.7,55.5,44.7,42.0,36.3,25.0,80,52,24,29.86,29.74,10,4,13,0.00
2013-10-29,69.0,59.1,46.4,30.0,26.7,24.0,47,30,19,29.90,29.66,29,10,38,0.00
2013-10-30,59.2,50.3,37.5,39.0,33.5,27.0,83,55,31,29.90,29.67,27,6,28,0.01
2013-10-31,54.4,45.4,37.7,33.0,28.2,24.0,82,54,32,30.11,29.90,17,6,28,0.00
2013-11-1,59.8,49.6,38.8,29.0,26.9,23.0,64,44,25,30.22,30.05,20,6,27,0.00
2013-11-2,63.2,48.5,35.9,29.0,26.5,24.0,69,45,23,30.30,30.01,15,5,20,0.00
2013-11-3,66.9,52.5,41.8,44.0,32.6,24.0,85,50,25,30.01,29.66,24,6,28,0.03
2013-11-4,65.7,54.1,38.6,42.0,35.5,30.0,76,52,31,29.88,29.66,20,5,24,0.00
2013-11-5,51.6,44.7,35.1,44.0,32.4,20.0,89,64,43,30.24,29.70,23,8,30,0.30
2013-11-6,53.6,41.1,30.7,23.0,17.6,14.0,58,41,21,30.48,30.25,14,4,20,0.00
2013-11-7,60.4,44.1,30.3,28.0,24.0,20.0,80,48,22,30.52,30.28,12,4,15,0.00
2013-11-8,62.0,45.5,29.6,29.0,26.0,23.0,80,51,25,30.29,30.03,13,5,21,0.00
2013-11-9,69.3,50.0,33.2,29.0,24.8,19.0,71,42,15,30.21,30.08,11,3,14,0.00
2013-11-10,68.7,50.2,34.3,29.0,26.3,22.0,70,43,18,30.28,30.13,11,4,15,0.00
2013-11-11,67.7,51.4,37.3,30.0,25.4,22.0,67,40,18,30.31,30.17,15,5,19,0.00
2013-11-12,59.7,47.9,39.3,36.0,32.1,24.0,78,56,35,30.50,30.30,18,5,25,0.00
2013-11-13,56.1,44.4,37.0,38.0,35.9,34.0,88,73,51,30.49,30.14,16,6,20,0.00
2013-11-14,60.9,46.3,36.6,40.0,32.9,24.0,91,63,31,30.14,29.93,9,3,15,0.00
2013-11-15,60.4,45.6,32.1,46.0,33.4,23.0,88,65,38,29.94,29.66,19,7,29,0.06
2013-11-16,60.9,50.8,44.2,44.0,37.4,28.0,87,63,35,29.75,29.55,25,10,30,0.05
2013-11-17,58.6,48.3,36.5,34.0,31.5,29.0,79,54,35,30.14,29.75,17,6,26,0.00
2013-11-18,55.0,42.9,34.8,33.0,31.3,29.0,79,65,43,30.24,30.11,9,2,12,0.00
2013-11-19,62.0,46.0,31.4,36.0,32.7,28.0,88,63,34,30.16,29.87,11,4,16,0.00
2013-11-20,50.9,45.5,40.6,43.0,37.6,31.0,93,75,54,29.92,29.82,19,5,23,0.13
2013-11-21,51.0,46.0,40.8,46.0,42.8,39.0,93,88,78,30.08,29.91,14,4,22,0.20
2013-11-22,41.5,38.6,34.2,39.0,31.6,28.0,91,76,66,30.39,30.05,19,5,23,0.07
2013-11-23,40.4,36.5,30.0,33.0,30.3,24.0,90,78,67,30.47,30.34,11,3,14,0.01
2013-11-24,31.3,28.8,24.4,28.0,22.7,19.0,100,78,66,30.41,30.24,18,6,23,0.06
2013-11-25,45.0,35.2,27.7,31.0,28.2,24.0,92,77,56,30.43,30.20,17,7,20,0.01
2013-11-26,49.3,35.6,25.5,31.0,28.1,23.0,90,76,49,30.55,30.43,8,3,11,0.00
2013-11-27,47.5,35.2,26.8,30.0,25.8,-99.9,87,72,47,30.50,30.27,11,-6,14,0.00
2013-11-28,50.7,36.7,27.5,29.0,26.3,22.0,92,68,40,30.37,30.25,9,4,13,0.00
2013-11-29,55.1,39.1,26.2,31.0,28.0,23.0,89,68,38,30.45,30.30,8,3,11,0.00
2013-11-30,57.1,41.2,29.7,34.0,31.1,27.0,89,70,41,30.40,30.20,10,4,15,0.00
2013-12-1,47.0,38.5,34.0,33.0,30.7,28.0,86,74,58,30.36,30.25,19,8,23,0.00
2013-12-2,51.9,40.1,29.8,30.0,27.8,25.0,83,63,38,30.28,29.89,14,4,22,0.00
2013-12-3,64.8,46.9,29.6,31.0,22.0,12.0,87,46,13,29.90,29.59,23,8,39,0.00
2013-12-4,59.6,46.6,37.6,31.0,24.4,17.0,69,44,23,29.80,29.46,35,12,43,0.00
2013-12-5,37.6,25.1,15.6,30.0,14.1,-99.9,92,77,61,30.14,29.78,19,-58,21,0.00
2013-12-6,36.8,22.4,10.0,21.0,13.3,6.0,87,70,39,30.42,30.14,14,4,25,0.05
2013-12-7,31.8,26.3,19.9,28.0,20.2,12.0,87,78,66,30.34,30.00,21,10,24,0.00
2013-12-8,34.4,30.6,26.9,27.0,16.1,9.0,82,56,40,30.11,29.87,22,11,37,0.01
2013-12-9,29.7,25.1,16.8,16.0,8.5,0.0,69,51,29,30.65,30.11,17,7,26,0.00
2013-12-10,38.1,22.9,11.3,10.0,4.9,1.0,71,48,24,30.70,30.47,9,3,14,0.00
2013-12-11,41.7,28.4,15.7,18.0,12.8,7.0,73,54,35,30.68,30.52,13,5,19,0.00
2013-12-12,40.9,32.9,21.7,20.0,14.8,11.0,67,49,33,30.67,30.24,14,5,19,0.00
2013-12-13,45.7,37.6,31.0,31.0,25.1,20.0,79,62,46,30.23,29.99,23,7,32,0.00
2013-12-14,46.7,36.0,27.5,21.0,18.7,17.0,68,51,31,30.49,30.16,21,6,24,0.00
2013-12-15,47.1,36.4,26.0,21.0,18.9,17.0,70,51,33,30.50,30.38,15,6,22,0.00
2013-12-16,55.5,39.9,23.8,24.0,21.4,18.0,80,51,26,30.49,30.33,9,2,16,0.00
2013-12-17,56.5,39.6,25.4,25.0,22.6,19.0,82,55,26,30.50,30.34,10,4,12,0.00
2013-12-18,54.3,37.9,26.5,25.0,22.6,20.0,80,57,28,30.35,29.99,11,5,15,0.00
2013-12-19,56.8,41.2,28.2,27.0,23.3,20.0,75,52,27,29.98,29.70,16,5,22,0.00
2013-12-20,53.7,39.6,28.0,28.0,24.4,20.0,77,57,28,29.82,29.64,10,4,17,0.00
2013-12-21,40.7,37.2,34.9,34.0,28.5,25.0,92,72,55,29.89,29.54,17,5,21,0.22
2013-12-22,43.9,35.5,28.7,26.0,20.5,14.0,76,56,31,30.37,29.89,22,6,23,0.00
2013-12-23,47.2,36.0,24.4,22.0,19.8,17.0,73,53,34,30.56,30.37,16,4,25,0.00
2013-12-24,50.0,37.8,23.5,25.0,22.0,18.0,81,55,34,30.48,30.23,15,5,21,0.00
2013-12-25,47.0,35.7,28.5,23.0,18.0,13.0,71,51,25,30.50,30.35,14,5,20,0.00
2013-12-26,53.7,34.9,20.1,20.0,16.3,13.0,77,50,23,30.53,30.34,16,5,21,0.00
2013-12-27,55.1,37.1,27.4,19.0,15.7,12.0,64,44,22,30.48,30.29,16,5,19,0.00
2013-12-28,48.1,34.5,20.8,19.0,16.7,14.0,76,51,28,30.30,30.00,19,6,25,0.00
2013-12-29,45.6,37.6,27.4,24.0,21.9,19.0,72,54,40,30.26,30.04,16,4,17,0.00
2013-12-30,50.4,36.1,26.0,21.0,15.2,10.0,70,46,21,30.44,30.26,12,3,17,0.00
2013-12-31,50.7,34.9,20.1,19.0,16.2,13.0,75,49,26,30.44,30.22,16,6,22,0.00
2014-1-1,53.1,41.1,28.0,22.0,18.6,16.0,65,43,24,30.34,30.15,29,8,32,0.00
2014-1-2,51.6,35.6,23.7,22.0,16.5,12.0,80,49,21,30.43,30.28,14,5,20,0.00